sensor_id;sensor_type;location;lat;lon;timestamp;pressure;altitude;pressure_sealevel;temperature;humidity
25080;BME280;13071;48.868;9.996;2023-03-25T00:01:34;95878.50;;;8.49;99.37
25080;BME280;13071;48.868;9.996;2023-03-25T00:04:02;95886.38;;;8.42;99.91
25080;BME280;13071;48.868;9.996;2023-03-25T00:06:30;95884.47;;;8.43;97.99
25080;BME280;13071;48.868;9.996;2023-03-25T00:08:58;95883.78;;;8.46;97.25
25080;BME280;13071;48.868;9.996;2023-03-25T00:11:26;95873.31;;;8.44;95.84
25080;BME280;13071;48.868;9.996;2023-03-25T00:13:55;95884.78;;;8.41;96.51
25080;BME280;13071;48.868;9.996;2023-03-25T00:16:22;95884.69;;;8.38;96.46
25080;BME280;13071;48.868;9.996;2023-03-25T00:18:48;95870.28;;;8.34;97.33
25080;BME280;13071;48.868;9.996;2023-03-25T00:21:15;95865.84;;;8.29;97.78
25080;BME280;13071;48.868;9.996;2023-03-25T00:23:43;95878.03;;;8.35;98.27
25080;BME280;13071;48.868;9.996;2023-03-25T00:26:09;95879.50;;;8.45;96.85
25080;BME280;13071;48.868;9.996;2023-03-25T00:28:37;95871.31;;;8.41;97.87
25080;BME280;13071;48.868;9.996;2023-03-25T00:31:07;95877.13;;;8.31;97.92
25080;BME280;13071;48.868;9.996;2023-03-25T00:33:34;95887.38;;;8.38;98.06
25080;BME280;13071;48.868;9.996;2023-03-25T00:36:01;95882.19;;;8.33;98.43
25080;BME280;13071;48.868;9.996;2023-03-25T00:38:30;95894.19;;;8.35;98.88
25080;BME280;13071;48.868;9.996;2023-03-25T00:41:10;95889.03;;;8.30;99.54
25080;BME280;13071;48.868;9.996;2023-03-25T00:43:37;95899.81;;;8.30;99.35
25080;BME280;13071;48.868;9.996;2023-03-25T00:46:05;95893.16;;;8.28;100.00
25080;BME280;13071;48.868;9.996;2023-03-25T00:48:32;95899.41;;;8.19;97.94
25080;BME280;13071;48.868;9.996;2023-03-25T00:50:59;95907.16;;;8.21;99.84
25080;BME280;13071;48.868;9.996;2023-03-25T00:53:31;95902.50;;;8.09;100.00
25080;BME280;13071;48.868;9.996;2023-03-25T00:55:58;95912.53;;;8.09;100.00
25080;BME280;13071;48.868;9.996;2023-03-25T00:58:25;95892.28;;;8.03;100.00
25080;BME280;13071;48.868;9.996;2023-03-25T01:00:52;95898.47;;;8.03;100.00
25080;BME280;13071;48.868;9.996;2023-03-25T01:03:22;95886.31;;;7.97;99.49
25080;BME280;13071;48.868;9.996;2023-03-25T01:05:49;95888.91;;;8.06;99.16
25080;BME280;13071;48.868;9.996;2023-03-25T01:08:19;95878.34;;;7.80;100.00
25080;BME280;13071;48.868;9.996;2023-03-25T01:10:50;95876.41;;;7.89;100.00
25080;BME280;13071;48.868;9.996;2023-03-25T01:13:16;95876.72;;;7.88;99.55
25080;BME280;13071;48.868;9.996;2023-03-25T01:15:43;95879.91;;;8.02;99.21
25080;BME280;13071;48.868;9.996;2023-03-25T01:18:10;95868.13;;;7.73;98.58
25080;BME280;13071;48.868;9.996;2023-03-25T01:20:39;95872.31;;;7.83;97.92
25080;BME280;13071;48.868;9.996;2023-03-25T01:23:06;95863.84;;;7.72;97.57
25080;BME280;13071;48.868;9.996;2023-03-25T01:25:33;95876.13;;;7.82;97.80
25080;BME280;13071;48.868;9.996;2023-03-25T01:28:00;95867.03;;;7.74;98.00
25080;BME280;13071;48.868;9.996;2023-03-25T01:30:26;95871.72;;;7.77;97.48
25080;BME280;13071;48.868;9.996;2023-03-25T01:32:53;95863.34;;;7.79;97.59
25080;BME280;13071;48.868;9.996;2023-03-25T01:35:20;95846.63;;;7.65;98.16
25080;BME280;13071;48.868;9.996;2023-03-25T01:37:48;95843.22;;;7.76;97.92
25080;BME280;13071;48.868;9.996;2023-03-25T01:40:18;95843.50;;;7.63;98.81
25080;BME280;13071;48.868;9.996;2023-03-25T01:42:45;95840.41;;;7.52;99.51
25080;BME280;13071;48.868;9.996;2023-03-25T01:45:18;95843.31;;;7.47;99.52
25080;BME280;13071;48.868;9.996;2023-03-25T01:47:47;95829.63;;;7.52;97.38
25080;BME280;13071;48.868;9.996;2023-03-25T01:50:15;95829.91;;;7.38;98.29
25080;BME280;13071;48.868;9.996;2023-03-25T01:52:44;95825.56;;;7.46;98.60
25080;BME280;13071;48.868;9.996;2023-03-25T01:55:14;95819.88;;;7.48;97.66
25080;BME280;13071;48.868;9.996;2023-03-25T01:57:45;95814.47;;;7.48;97.35
25080;BME280;13071;48.868;9.996;2023-03-25T02:00:14;95818.06;;;7.31;97.61
25080;BME280;13071;48.868;9.996;2023-03-25T02:02:42;95820.84;;;7.22;98.78
25080;BME280;13071;48.868;9.996;2023-03-25T02:05:15;95830.50;;;7.23;99.05
25080;BME280;13071;48.868;9.996;2023-03-25T02:07:45;95812.31;;;7.00;100.00
25080;BME280;13071;48.868;9.996;2023-03-25T02:10:15;95813.00;;;6.88;100.00
25080;BME280;13071;48.868;9.996;2023-03-25T02:12:42;95806.09;;;6.78;100.00
25080;BME280;13071;48.868;9.996;2023-03-25T02:15:11;95818.97;;;6.93;100.00
25080;BME280;13071;48.868;9.996;2023-03-25T02:17:47;95828.94;;;6.93;100.00
25080;BME280;13071;48.868;9.996;2023-03-25T02:23:41;95820.56;;;6.94;100.00
25080;BME280;13071;48.868;9.996;2023-03-25T02:26:39;95818.66;;;6.95;100.00
25080;BME280;13071;48.868;9.996;2023-03-25T02:29:24;95810.59;;;7.16;99.88
25080;BME280;13071;48.868;9.996;2023-03-25T02:32:09;95819.59;;;7.20;98.74
25080;BME280;13071;48.868;9.996;2023-03-25T02:34:50;95809.66;;;7.12;99.69
25080;BME280;13071;48.868;9.996;2023-03-25T02:37:57;95807.25;;;6.98;99.67
25080;BME280;13071;48.868;9.996;2023-03-25T02:40:35;95808.69;;;6.96;100.00
25080;BME280;13071;48.868;9.996;2023-03-25T02:43:09;95815.06;;;7.12;100.00
25080;BME280;13071;48.868;9.996;2023-03-25T02:45:42;95803.50;;;7.11;100.00
25080;BME280;13071;48.868;9.996;2023-03-25T02:48:15;95816.63;;;7.13;99.31
25080;BME280;13071;48.868;9.996;2023-03-25T02:50:47;95813.53;;;7.02;99.00
25080;BME280;13071;48.868;9.996;2023-03-25T02:53:21;95816.81;;;7.08;99.62
25080;BME280;13071;48.868;9.996;2023-03-25T02:55:50;95814.38;;;6.94;99.18
25080;BME280;13071;48.868;9.996;2023-03-25T02:58:19;95815.13;;;7.03;99.95
25080;BME280;13071;48.868;9.996;2023-03-25T03:00:47;95817.53;;;6.96;99.59
25080;BME280;13071;48.868;9.996;2023-03-25T03:03:16;95810.59;;;6.95;99.88
25080;BME280;13071;48.868;9.996;2023-03-25T03:05:44;95810.06;;;7.02;98.40
25080;BME280;13071;48.868;9.996;2023-03-25T03:08:31;95816.91;;;7.20;98.17
25080;BME280;13071;48.868;9.996;2023-03-25T03:11:09;95810.47;;;7.12;98.18
25080;BME280;13071;48.868;9.996;2023-03-25T03:16:34;95819.66;;;7.32;97.48
25080;BME280;13071;48.868;9.996;2023-03-25T03:19:11;95815.13;;;7.24;96.70
25080;BME280;13071;48.868;9.996;2023-03-25T03:21:47;95797.31;;;7.11;98.13
25080;BME280;13071;48.868;9.996;2023-03-25T03:24:21;95794.63;;;7.11;97.91
25080;BME280;13071;48.868;9.996;2023-03-25T03:26:54;95808.25;;;7.14;96.37
25080;BME280;13071;48.868;9.996;2023-03-25T03:29:27;95809.94;;;7.19;96.48
25080;BME280;13071;48.868;9.996;2023-03-25T03:31:59;95805.03;;;7.42;95.06
25080;BME280;13071;48.868;9.996;2023-03-25T03:34:31;95808.78;;;7.28;94.55
25080;BME280;13071;48.868;9.996;2023-03-25T03:37:02;95820.94;;;7.34;93.55
25080;BME280;13071;48.868;9.996;2023-03-25T03:39:34;95830.22;;;7.37;93.84
25080;BME280;13071;48.868;9.996;2023-03-25T03:42:05;95846.56;;;7.32;94.37
25080;BME280;13071;48.868;9.996;2023-03-25T03:44:34;95851.16;;;7.31;95.55
25080;BME280;13071;48.868;9.996;2023-03-25T03:47:04;95863.22;;;7.25;96.39
25080;BME280;13071;48.868;9.996;2023-03-25T03:49:36;95882.59;;;6.89;95.50
25080;BME280;13071;48.868;9.996;2023-03-25T03:52:07;95887.91;;;6.69;95.06
25080;BME280;13071;48.868;9.996;2023-03-25T03:54:41;95894.38;;;6.13;98.25
25080;BME280;13071;48.868;9.996;2023-03-25T03:57:13;95897.34;;;6.28;97.62
25080;BME280;13071;48.868;9.996;2023-03-25T03:59:47;95898.59;;;6.39;99.25
25080;BME280;13071;48.868;9.996;2023-03-25T04:02:22;95900.78;;;6.55;100.00
25080;BME280;13071;48.868;9.996;2023-03-25T04:04:51;95888.41;;;6.62;100.00
25080;BME280;13071;48.868;9.996;2023-03-25T04:07:22;95890.13;;;6.67;100.00
25080;BME280;13071;48.868;9.996;2023-03-25T04:09:56;95884.63;;;6.63;100.00
25080;BME280;13071;48.868;9.996;2023-03-25T04:12:28;95897.22;;;6.71;100.00
25080;BME280;13071;48.868;9.996;2023-03-25T04:14:59;95882.19;;;6.79;100.00
25080;BME280;13071;48.868;9.996;2023-03-25T04:17:26;95895.19;;;6.68;100.00
25080;BME280;13071;48.868;9.996;2023-03-25T04:19:54;95894.97;;;6.82;100.00
25080;BME280;13071;48.868;9.996;2023-03-25T04:22:21;95893.19;;;6.86;100.00
25080;BME280;13071;48.868;9.996;2023-03-25T04:24:47;95893.88;;;6.83;99.47
25080;BME280;13071;48.868;9.996;2023-03-25T04:27:18;95896.47;;;6.71;97.24
25080;BME280;13071;48.868;9.996;2023-03-25T04:29:47;95903.56;;;6.75;96.16
25080;BME280;13071;48.868;9.996;2023-03-25T04:32:16;95901.97;;;6.74;94.89
25080;BME280;13071;48.868;9.996;2023-03-25T04:34:43;95900.69;;;6.72;94.33
25080;BME280;13071;48.868;9.996;2023-03-25T04:37:11;95901.34;;;6.69;92.53
25080;BME280;13071;48.868;9.996;2023-03-25T04:39:38;95900.69;;;6.72;91.48
25080;BME280;13071;48.868;9.996;2023-03-25T04:42:04;95895.50;;;6.67;91.35
25080;BME280;13071;48.868;9.996;2023-03-25T04:44:32;95889.69;;;6.65;92.99
25080;BME280;13071;48.868;9.996;2023-03-25T04:47:04;95900.31;;;6.53;92.94
25080;BME280;13071;48.868;9.996;2023-03-25T04:49:32;95895.88;;;6.48;93.45
25080;BME280;13071;48.868;9.996;2023-03-25T04:51:59;95907.13;;;6.41;93.69
25080;BME280;13071;48.868;9.996;2023-03-25T04:54:28;95911.09;;;6.44;93.87
25080;BME280;13071;48.868;9.996;2023-03-25T04:56:55;95910.31;;;6.35;94.47
25080;BME280;13071;48.868;9.996;2023-03-25T04:59:23;95917.41;;;6.39;94.71
25080;BME280;13071;48.868;9.996;2023-03-25T05:01:52;95922.81;;;6.31;95.64
25080;BME280;13071;48.868;9.996;2023-03-25T05:04:19;95916.50;;;6.35;95.31
25080;BME280;13071;48.868;9.996;2023-03-25T05:06:49;95915.97;;;6.42;95.73
25080;BME280;13071;48.868;9.996;2023-03-25T05:09:17;95907.28;;;6.45;95.90
25080;BME280;13071;48.868;9.996;2023-03-25T05:11:47;95913.44;;;6.54;94.46
25080;BME280;13071;48.868;9.996;2023-03-25T05:14:15;95922.66;;;6.36;94.64
25080;BME280;13071;48.868;9.996;2023-03-25T05:16:43;95913.47;;;6.28;95.38
25080;BME280;13071;48.868;9.996;2023-03-25T05:19:12;95918.69;;;6.33;95.89
25080;BME280;13071;48.868;9.996;2023-03-25T05:21:39;95915.88;;;6.30;94.92
25080;BME280;13071;48.868;9.996;2023-03-25T05:24:07;95929.94;;;6.18;95.05
25080;BME280;13071;48.868;9.996;2023-03-25T05:26:35;95911.28;;;6.30;95.89
25080;BME280;13071;48.868;9.996;2023-03-25T05:29:02;95914.59;;;6.19;95.90
25080;BME280;13071;48.868;9.996;2023-03-25T05:31:29;95921.56;;;6.20;95.90
25080;BME280;13071;48.868;9.996;2023-03-25T05:33:56;95922.38;;;6.12;96.49
25080;BME280;13071;48.868;9.996;2023-03-25T05:36:24;95935.00;;;6.20;95.62
25080;BME280;13071;48.868;9.996;2023-03-25T05:38:51;95941.66;;;6.05;96.73
25080;BME280;13071;48.868;9.996;2023-03-25T05:41:20;95943.69;;;6.08;96.24
25080;BME280;13071;48.868;9.996;2023-03-25T05:43:47;95934.84;;;6.16;96.13
25080;BME280;13071;48.868;9.996;2023-03-25T05:46:15;95946.06;;;6.18;96.24
25080;BME280;13071;48.868;9.996;2023-03-25T05:48:43;95948.72;;;6.27;95.51
25080;BME280;13071;48.868;9.996;2023-03-25T05:51:12;95953.34;;;6.09;95.82
25080;BME280;13071;48.868;9.996;2023-03-25T05:53:41;95965.97;;;6.34;94.57
25080;BME280;13071;48.868;9.996;2023-03-25T05:56:09;95952.06;;;6.24;94.57
25080;BME280;13071;48.868;9.996;2023-03-25T05:58:36;95962.47;;;6.42;94.81
25080;BME280;13071;48.868;9.996;2023-03-25T06:01:02;95958.81;;;6.56;95.87
25080;BME280;13071;48.868;9.996;2023-03-25T06:03:29;95952.69;;;6.29;96.06
25080;BME280;13071;48.868;9.996;2023-03-25T06:05:58;95959.72;;;6.68;94.79
25080;BME280;13071;48.868;9.996;2023-03-25T06:08:26;95948.47;;;6.75;94.96
25080;BME280;13071;48.868;9.996;2023-03-25T06:10:55;95949.28;;;6.75;93.90
25080;BME280;13071;48.868;9.996;2023-03-25T06:13:25;95951.00;;;6.71;94.03
25080;BME280;13071;48.868;9.996;2023-03-25T06:15:51;95947.47;;;6.88;94.77
25080;BME280;13071;48.868;9.996;2023-03-25T06:18:20;95942.63;;;7.11;93.22
25080;BME280;13071;48.868;9.996;2023-03-25T06:20:48;95947.69;;;7.42;92.77
25080;BME280;13071;48.868;9.996;2023-03-25T06:23:15;95939.84;;;7.57;91.96
25080;BME280;13071;48.868;9.996;2023-03-25T06:25:43;95931.31;;;7.76;89.75
25080;BME280;13071;48.868;9.996;2023-03-25T06:28:11;95937.81;;;7.96;90.10
25080;BME280;13071;48.868;9.996;2023-03-25T06:30:38;95938.88;;;7.82;89.47
25080;BME280;13071;48.868;9.996;2023-03-25T06:33:04;95944.59;;;7.81;89.14
25080;BME280;13071;48.868;9.996;2023-03-25T06:35:31;95946.38;;;7.98;89.26
25080;BME280;13071;48.868;9.996;2023-03-25T06:37:57;95944.97;;;7.92;88.80
25080;BME280;13071;48.868;9.996;2023-03-25T06:40:25;95948.06;;;8.02;88.80
25080;BME280;13071;48.868;9.996;2023-03-25T06:42:52;95952.00;;;8.05;87.50
25080;BME280;13071;48.868;9.996;2023-03-25T06:45:19;95952.28;;;8.12;88.07
25080;BME280;13071;48.868;9.996;2023-03-25T06:47:46;95951.22;;;8.04;87.48
25080;BME280;13071;48.868;9.996;2023-03-25T06:50:12;95941.09;;;8.01;86.84
25080;BME280;13071;48.868;9.996;2023-03-25T06:52:39;95953.06;;;8.12;86.71
25080;BME280;13071;48.868;9.996;2023-03-25T06:55:06;95948.59;;;8.16;86.09
25080;BME280;13071;48.868;9.996;2023-03-25T06:57:33;95930.72;;;8.12;85.64
25080;BME280;13071;48.868;9.996;2023-03-25T07:00:00;95952.94;;;8.09;85.47
25080;BME280;13071;48.868;9.996;2023-03-25T07:02:28;95961.88;;;8.21;85.85
25080;BME280;13071;48.868;9.996;2023-03-25T07:04:54;95974.31;;;8.14;85.31
25080;BME280;13071;48.868;9.996;2023-03-25T07:07:21;95969.81;;;8.18;87.64
25080;BME280;13071;48.868;9.996;2023-03-25T07:09:50;95954.25;;;8.03;88.37
25080;BME280;13071;48.868;9.996;2023-03-25T07:12:16;95954.69;;;8.05;88.87
25080;BME280;13071;48.868;9.996;2023-03-25T07:14:43;95958.94;;;7.94;88.90
25080;BME280;13071;48.868;9.996;2023-03-25T07:17:10;95956.09;;;8.11;88.76
25080;BME280;13071;48.868;9.996;2023-03-25T07:19:39;95957.97;;;8.10;88.08
25080;BME280;13071;48.868;9.996;2023-03-25T07:22:05;95947.47;;;8.17;86.67
25080;BME280;13071;48.868;9.996;2023-03-25T07:24:32;95960.59;;;8.19;86.73
25080;BME280;13071;48.868;9.996;2023-03-25T07:26:59;95957.97;;;8.10;86.02
25080;BME280;13071;48.868;9.996;2023-03-25T07:29:25;95958.31;;;8.30;85.89
25080;BME280;13071;48.868;9.996;2023-03-25T07:31:52;95955.00;;;8.45;85.21
25080;BME280;13071;48.868;9.996;2023-03-25T07:34:18;95957.47;;;8.38;84.24
25080;BME280;13071;48.868;9.996;2023-03-25T07:36:46;95946.34;;;8.39;84.60
25080;BME280;13071;48.868;9.996;2023-03-25T07:39:13;95949.63;;;8.45;83.52
25080;BME280;13071;48.868;9.996;2023-03-25T07:41:39;95951.09;;;8.54;83.10
25080;BME280;13071;48.868;9.996;2023-03-25T07:44:07;95937.19;;;8.64;83.09
25080;BME280;13071;48.868;9.996;2023-03-25T07:46:33;95935.97;;;8.74;82.30
25080;BME280;13071;48.868;9.996;2023-03-25T07:49:00;95948.81;;;8.89;80.43
25080;BME280;13071;48.868;9.996;2023-03-25T07:51:26;95942.28;;;8.66;80.73
25080;BME280;13071;48.868;9.996;2023-03-25T07:53:55;95945.66;;;8.75;80.79
25080;BME280;13071;48.868;9.996;2023-03-25T07:56:22;95957.97;;;8.52;80.70
25080;BME280;13071;48.868;9.996;2023-03-25T07:58:48;95962.47;;;8.60;81.68
25080;BME280;13071;48.868;9.996;2023-03-25T08:01:15;95964.59;;;8.54;80.88
25080;BME280;13071;48.868;9.996;2023-03-25T08:03:42;95956.97;;;8.68;81.16
25080;BME280;13071;48.868;9.996;2023-03-25T08:06:08;95953.88;;;8.79;81.07
25080;BME280;13071;48.868;9.996;2023-03-25T08:08:35;95965.44;;;8.67;79.89
25080;BME280;13071;48.868;9.996;2023-03-25T08:11:03;95982.03;;;8.57;80.02
25080;BME280;13071;48.868;9.996;2023-03-25T08:13:30;95981.16;;;8.65;81.67
25080;BME280;13071;48.868;9.996;2023-03-25T08:15:56;95983.19;;;8.68;81.77
25080;BME280;13071;48.868;9.996;2023-03-25T08:18:23;95985.09;;;8.68;82.50
25080;BME280;13071;48.868;9.996;2023-03-25T08:20:50;95983.75;;;8.74;82.87
25080;BME280;13071;48.868;9.996;2023-03-25T08:23:17;95989.94;;;8.74;82.33
25080;BME280;13071;48.868;9.996;2023-03-25T08:25:45;95977.97;;;8.96;81.55
25080;BME280;13071;48.868;9.996;2023-03-25T08:28:15;95974.53;;;8.75;81.50
25080;BME280;13071;48.868;9.996;2023-03-25T08:30:46;95978.19;;;8.91;83.22
25080;BME280;13071;48.868;9.996;2023-03-25T08:33:13;95965.38;;;8.88;82.86
25080;BME280;13071;48.868;9.996;2023-03-25T08:35:41;95969.34;;;9.15;83.24
25080;BME280;13071;48.868;9.996;2023-03-25T08:38:08;95967.66;;;9.22;82.44
25080;BME280;13071;48.868;9.996;2023-03-25T08:40:34;95960.47;;;9.50;81.21
25080;BME280;13071;48.868;9.996;2023-03-25T08:43:03;95967.66;;;9.71;80.36
25080;BME280;13071;48.868;9.996;2023-03-25T08:45:31;95962.56;;;9.69;81.01
25080;BME280;13071;48.868;9.996;2023-03-25T08:47:59;95959.63;;;9.74;80.06
25080;BME280;13071;48.868;9.996;2023-03-25T08:50:25;95962.88;;;9.92;79.67
25080;BME280;13071;48.868;9.996;2023-03-25T08:52:52;95962.06;;;10.16;79.35
25080;BME280;13071;48.868;9.996;2023-03-25T08:55:22;95954.25;;;10.14;76.47
25080;BME280;13071;48.868;9.996;2023-03-25T08:57:49;95957.28;;;10.13;77.49
25080;BME280;13071;48.868;9.996;2023-03-25T09:00:15;95954.69;;;10.28;77.03
25080;BME280;13071;48.868;9.996;2023-03-25T09:02:49;95947.97;;;10.10;75.87
25080;BME280;13071;48.868;9.996;2023-03-25T09:05:16;95950.63;;;10.34;76.22
25080;BME280;13071;48.868;9.996;2023-03-25T09:07:44;95946.16;;;10.14;75.47
25080;BME280;13071;48.868;9.996;2023-03-25T09:10:11;95949.44;;;10.20;75.66
25080;BME280;13071;48.868;9.996;2023-03-25T09:12:38;95941.16;;;10.28;75.88
25080;BME280;13071;48.868;9.996;2023-03-25T09:15:06;95937.25;;;10.26;75.02
25080;BME280;13071;48.868;9.996;2023-03-25T09:17:32;95940.47;;;10.59;75.67
25080;BME280;13071;48.868;9.996;2023-03-25T09:20:00;95929.94;;;10.70;75.17
25080;BME280;13071;48.868;9.996;2023-03-25T09:22:27;95939.53;;;10.67;73.86
25080;BME280;13071;48.868;9.996;2023-03-25T09:24:54;95933.78;;;10.41;74.70
25080;BME280;13071;48.868;9.996;2023-03-25T09:27:20;95939.53;;;10.00;75.32
25080;BME280;13071;48.868;9.996;2023-03-25T09:29:47;95939.97;;;10.02;77.14
25080;BME280;13071;48.868;9.996;2023-03-25T09:32:13;95940.03;;;9.89;79.50
25080;BME280;13071;48.868;9.996;2023-03-25T09:34:40;95935.00;;;9.76;81.16
25080;BME280;13071;48.868;9.996;2023-03-25T09:37:08;95940.53;;;9.43;80.95
25080;BME280;13071;48.868;9.996;2023-03-25T09:39:34;95942.66;;;9.37;83.12
25080;BME280;13071;48.868;9.996;2023-03-25T09:45:05;95942.09;;;8.95;85.78
25080;BME280;13071;48.868;9.996;2023-03-25T09:47:36;95941.19;;;9.03;84.89
25080;BME280;13071;48.868;9.996;2023-03-25T09:50:06;95944.78;;;8.95;85.66
25080;BME280;13071;48.868;9.996;2023-03-25T09:52:46;95930.16;;;8.84;84.91
25080;BME280;13071;48.868;9.996;2023-03-25T09:55:20;95944.97;;;8.66;86.47
25080;BME280;13071;48.868;9.996;2023-03-25T09:57:54;95952.56;;;8.52;87.70
25080;BME280;13071;48.868;9.996;2023-03-25T10:00:24;95954.59;;;8.55;87.09
25080;BME280;13071;48.868;9.996;2023-03-25T10:02:59;95949.91;;;8.64;87.59
25080;BME280;13071;48.868;9.996;2023-03-25T10:05:47;95941.19;;;9.03;88.89
25080;BME280;13071;48.868;9.996;2023-03-25T10:08:23;95939.44;;;9.32;88.40
25080;BME280;13071;48.868;9.996;2023-03-25T10:10:58;95928.69;;;9.72;88.23
25080;BME280;13071;48.868;9.996;2023-03-25T10:13:35;95921.75;;;9.98;87.93
25080;BME280;13071;48.868;9.996;2023-03-25T10:16:11;95929.00;;;10.22;87.16
25080;BME280;13071;48.868;9.996;2023-03-25T10:19:00;95928.63;;;9.96;84.38
25080;BME280;13071;48.868;9.996;2023-03-25T10:21:37;95934.47;;;9.98;85.49
25080;BME280;13071;48.868;9.996;2023-03-25T10:24:16;95934.38;;;9.94;85.75
25080;BME280;13071;48.868;9.996;2023-03-25T10:26:46;95938.31;;;9.97;84.90
25080;BME280;13071;48.868;9.996;2023-03-25T10:29:16;95938.59;;;9.68;86.32
25080;BME280;13071;48.868;9.996;2023-03-25T10:31:50;95926.34;;;9.58;85.66
25080;BME280;13071;48.868;9.996;2023-03-25T10:34:18;95925.53;;;9.70;88.25
25080;BME280;13071;48.868;9.996;2023-03-25T10:36:48;95913.94;;;10.09;89.28
25080;BME280;13071;48.868;9.996;2023-03-25T10:39:21;95913.63;;;10.11;89.40
25080;BME280;13071;48.868;9.996;2023-03-25T10:41:51;95906.38;;;10.15;85.34
25080;BME280;13071;48.868;9.996;2023-03-25T10:44:21;95898.84;;;10.08;84.41
25080;BME280;13071;48.868;9.996;2023-03-25T10:46:53;95893.63;;;10.27;85.52
25080;BME280;13071;48.868;9.996;2023-03-25T10:49:26;95887.69;;;10.65;85.03
25080;BME280;13071;48.868;9.996;2023-03-25T10:51:53;95890.66;;;10.92;83.88
25080;BME280;13071;48.868;9.996;2023-03-25T10:54:26;95891.50;;;10.96;81.38
25080;BME280;13071;48.868;9.996;2023-03-25T10:56:57;95885.69;;;10.94;79.86
25080;BME280;13071;48.868;9.996;2023-03-25T10:59:29;95894.66;;;10.51;77.47
25080;BME280;13071;48.868;9.996;2023-03-25T11:01:59;95892.88;;;10.43;76.95
25080;BME280;13071;48.868;9.996;2023-03-25T11:04:31;95882.63;;;10.79;78.25
25080;BME280;13071;48.868;9.996;2023-03-25T11:07:00;95873.09;;;10.70;75.18
25080;BME280;13071;48.868;9.996;2023-03-25T11:09:31;95875.19;;;10.76;75.75
25080;BME280;13071;48.868;9.996;2023-03-25T11:12:03;95867.66;;;11.01;76.63
25080;BME280;13071;48.868;9.996;2023-03-25T11:14:35;95859.19;;;11.18;76.67
25080;BME280;13071;48.868;9.996;2023-03-25T11:17:06;95857.03;;;11.08;73.92
25080;BME280;13071;48.868;9.996;2023-03-25T11:19:39;95867.66;;;11.17;75.48
25080;BME280;13071;48.868;9.996;2023-03-25T11:22:08;95873.06;;;11.17;76.19
25080;BME280;13071;48.868;9.996;2023-03-25T11:24:42;95868.13;;;10.88;73.82
25080;BME280;13071;48.868;9.996;2023-03-25T11:27:15;95866.47;;;10.83;75.20
25080;BME280;13071;48.868;9.996;2023-03-25T11:29:49;95860.59;;;10.81;75.87
25080;BME280;13071;48.868;9.996;2023-03-25T11:32:22;95868.22;;;10.75;75.13
25080;BME280;13071;48.868;9.996;2023-03-25T11:34:49;95867.06;;;10.76;75.53
25080;BME280;13071;48.868;9.996;2023-03-25T11:37:18;95858.94;;;10.76;74.64
25080;BME280;13071;48.868;9.996;2023-03-25T11:39:51;95870.41;;;10.70;75.76
25080;BME280;13071;48.868;9.996;2023-03-25T11:42:27;95872.75;;;10.87;75.88
25080;BME280;13071;48.868;9.996;2023-03-25T11:44:58;95877.38;;;10.87;74.07
25080;BME280;13071;48.868;9.996;2023-03-25T11:47:29;95881.47;;;10.80;75.07
25080;BME280;13071;48.868;9.996;2023-03-25T11:49:56;95880.59;;;10.76;75.18
25080;BME280;13071;48.868;9.996;2023-03-25T11:52:25;95890.81;;;10.67;74.12
25080;BME280;13071;48.868;9.996;2023-03-25T11:54:54;95898.97;;;10.39;75.73
25080;BME280;13071;48.868;9.996;2023-03-25T11:57:23;95908.44;;;10.06;79.39
25080;BME280;13071;48.868;9.996;2023-03-25T12:00:00;95897.78;;;9.45;82.57
25080;BME280;13071;48.868;9.996;2023-03-25T12:02:35;95889.13;;;9.51;85.81
25080;BME280;13071;48.868;9.996;2023-03-25T12:05:11;95896.53;;;9.54;83.87
25080;BME280;13071;48.868;9.996;2023-03-25T12:07:40;95892.09;;;9.62;83.15
25080;BME280;13071;48.868;9.996;2023-03-25T12:10:16;95894.09;;;9.77;85.47
25080;BME280;13071;48.868;9.996;2023-03-25T12:12:50;95895.72;;;10.06;85.25
25080;BME280;13071;48.868;9.996;2023-03-25T12:15:29;95888.22;;;10.27;84.61
25080;BME280;13071;48.868;9.996;2023-03-25T12:18:11;95894.59;;;10.35;84.26
25080;BME280;13071;48.868;9.996;2023-03-25T12:20:52;95883.00;;;10.34;84.23
25080;BME280;13071;48.868;9.996;2023-03-25T12:23:27;95881.88;;;10.51;82.72
25080;BME280;13071;48.868;9.996;2023-03-25T12:26:01;95876.75;;;10.62;82.28
25080;BME280;13071;48.868;9.996;2023-03-25T12:31:35;95873.19;;;10.73;78.87
25080;BME280;13071;48.868;9.996;2023-03-25T12:34:14;95865.22;;;10.80;79.24
25080;BME280;13071;48.868;9.996;2023-03-25T12:36:52;95866.97;;;10.73;79.21
25080;BME280;13071;48.868;9.996;2023-03-25T12:39:37;95872.38;;;10.57;78.60
25080;BME280;13071;48.868;9.996;2023-03-25T12:42:15;95877.09;;;10.76;78.40
25080;BME280;13071;48.868;9.996;2023-03-25T12:44:59;95884.28;;;10.84;78.85
25080;BME280;13071;48.868;9.996;2023-03-25T12:47:32;95862.38;;;11.05;77.26
25080;BME280;13071;48.868;9.996;2023-03-25T12:53:01;95864.44;;;10.96;74.79
25080;BME280;13071;48.868;9.996;2023-03-25T12:55:48;95870.75;;;11.00;74.06
25080;BME280;13071;48.868;9.996;2023-03-25T12:58:34;95876.41;;;10.63;75.11
25080;BME280;13071;48.868;9.996;2023-03-25T13:01:10;95872.06;;;10.90;77.17
25080;BME280;13071;48.868;9.996;2023-03-25T13:04:10;95855.72;;;11.02;77.13
25080;BME280;13071;48.868;9.996;2023-03-25T13:06:43;95864.03;;;10.94;75.06
25080;BME280;13071;48.868;9.996;2023-03-25T13:09:17;95856.94;;;10.89;75.19
25080;BME280;13071;48.868;9.996;2023-03-25T13:11:49;95864.53;;;11.15;74.07
25080;BME280;13071;48.868;9.996;2023-03-25T13:14:20;95864.88;;;10.98;73.59
25080;BME280;13071;48.868;9.996;2023-03-25T13:16:51;95850.91;;;10.96;75.03
25080;BME280;13071;48.868;9.996;2023-03-25T13:19:23;95856.16;;;10.73;74.14
25080;BME280;13071;48.868;9.996;2023-03-25T13:21:54;95854.41;;;10.65;76.67
25080;BME280;13071;48.868;9.996;2023-03-25T13:24:25;95866.16;;;10.41;76.53
25080;BME280;13071;48.868;9.996;2023-03-25T13:26:55;95863.44;;;10.25;77.17
25080;BME280;13071;48.868;9.996;2023-03-25T13:29:28;95882.09;;;10.03;80.35
25080;BME280;13071;48.868;9.996;2023-03-25T13:32:01;95886.59;;;9.98;82.35
25080;BME280;13071;48.868;9.996;2023-03-25T13:34:32;95883.50;;;9.84;80.01
25080;BME280;13071;48.868;9.996;2023-03-25T13:37:07;95883.22;;;10.02;80.79
25080;BME280;13071;48.868;9.996;2023-03-25T13:39:47;95876.78;;;10.06;79.50